Time;durP1;ratioP1;P1;durP2;ratioP2;P2;SDS_P1;SDS_P2;PMS_P1;PMS_P2;Temp;Humidity;BMP_temperature;BMP_pressure;BME280_temperature;BME280_humidity;BME280_pressure;Samples;Min_cycle;Max_cycle;Signal;HPM_P1;HPM_P2
2022/12/09 00:01:27;;;;;;;58.58;13.82;;;;;;;;;;5120487;27;20046;-72
2022/12/09 00:03:55;;;;;;;23.52;11.50;;;;;;;;;;5124082;27;20101;-72
2022/12/09 00:06:22;;;;;;;14.25;8.82;;;;;;;;;;5122093;27;20433;-72
2022/12/09 00:08:48;;;;;;;36.90;10.77;;;;;;;;;;5118313;27;20065;-72
2022/12/09 00:11:14;;;;;;;50.08;11.43;;;;;;;;;;5123321;27;20038;-72
2022/12/09 00:13:41;;;;;;;18.42;9.40;;;;;;;;;;5124963;27;20121;-72
2022/12/09 00:16:12;;;;;;;27.80;10.90;;;;;;;;;;5115792;27;20043;-72
2022/12/09 00:18:38;;;;;;;86.85;15.13;;;;;;;;;;5105212;28;20053;-72
2022/12/09 00:21:14;;;;;;;89.93;19.00;;;;;;;;;;5122550;27;20481;-72
2022/12/09 00:23:41;;;;;;;19.02;9.77;;;;;;;;;;5108279;27;20548;-72
2022/12/09 00:26:07;;;;;;;105.40;19.23;;;;;;;;;;5109417;28;20043;-72
2022/12/09 00:28:33;;;;;;;15.00;9.43;;;;;;;;;;5118244;27;20524;-73
2022/12/09 00:31:00;;;;;;;22.65;9.88;;;;;;;;;;5116911;27;20069;-73
2022/12/09 00:33:26;;;;;;;18.30;9.23;;;;;;;;;;5116483;28;20273;-72
2022/12/09 00:35:52;;;;;;;49.42;12.85;;;;;;;;;;5099962;28;20234;-72
2022/12/09 00:38:18;;;;;;;76.32;14.80;;;;;;;;;;5114441;28;20546;-73
2022/12/09 00:40:44;;;;;;;87.72;18.35;;;;;;;;;;5119695;28;20047;-72
2022/12/09 00:43:10;;;;;;;47.65;12.55;;;;;;;;;;5121002;28;20051;-73
2022/12/09 00:45:36;;;;;;;63.28;15.10;;;;;;;;;;5117932;28;20557;-72
2022/12/09 00:48:03;;;;;;;42.55;12.95;;;;;;;;;;5117140;28;20031;-72
2022/12/09 00:50:29;;;;;;;83.50;14.57;;;;;;;;;;5119802;28;20361;-72
2022/12/09 00:52:55;;;;;;;50.03;12.68;;;;;;;;;;5101634;28;20107;-72
2022/12/09 00:55:23;;;;;;;23.77;11.93;;;;;;;;;;5120462;28;20039;-72
2022/12/09 00:57:50;;;;;;;38.47;11.50;;;;;;;;;;5120318;28;20504;-72
2022/12/09 01:00:16;;;;;;;50.75;12.63;;;;;;;;;;5118892;28;20100;-73
2022/12/09 01:02:42;;;;;;;78.82;14.52;;;;;;;;;;5104325;28;20092;-72
2022/12/09 01:05:08;;;;;;;22.85;10.75;;;;;;;;;;5095348;28;20035;-72
2022/12/09 01:07:36;;;;;;;55.22;12.45;;;;;;;;;;5114835;28;20040;-72
2022/12/09 01:10:03;;;;;;;24.48;10.85;;;;;;;;;;5102506;28;20035;-72
2022/12/09 01:12:29;;;;;;;21.90;9.85;;;;;;;;;;5120522;28;20035;-72
2022/12/09 01:14:55;;;;;;;17.45;9.68;;;;;;;;;;5098476;28;20047;-72
2022/12/09 01:17:21;;;;;;;16.35;9.65;;;;;;;;;;5116221;28;20303;-72
2022/12/09 01:19:47;;;;;;;16.58;8.93;;;;;;;;;;5115915;28;20466;-72
2022/12/09 01:22:13;;;;;;;54.63;12.25;;;;;;;;;;5127672;27;20039;-72
2022/12/09 01:24:39;;;;;;;26.15;9.80;;;;;;;;;;5129982;27;20038;-72
2022/12/09 01:27:05;;;;;;;55.40;11.52;;;;;;;;;;5123789;27;20031;-73
2022/12/09 01:29:31;;;;;;;34.90;10.90;;;;;;;;;;5108451;27;20047;-72
2022/12/09 01:31:58;;;;;;;32.35;10.05;;;;;;;;;;5125798;27;20130;-72
2022/12/09 01:34:24;;;;;;;60.30;13.95;;;;;;;;;;5129262;27;20281;-73
2022/12/09 01:36:50;;;;;;;48.45;12.07;;;;;;;;;;5119526;27;20031;-73
2022/12/09 01:39:16;;;;;;;151.63;19.10;;;;;;;;;;5121535;27;20092;-73
2022/12/09 01:41:42;;;;;;;146.00;21.27;;;;;;;;;;5125773;27;20044;-73
2022/12/09 01:44:11;;;;;;;100.18;16.83;;;;;;;;;;5108663;27;20119;-73
2022/12/09 01:46:38;;;;;;;40.53;11.85;;;;;;;;;;5127732;27;20043;-73
2022/12/09 01:49:06;;;;;;;43.47;10.43;;;;;;;;;;5096944;27;20046;-72
2022/12/09 01:51:32;;;;;;;46.67;11.15;;;;;;;;;;5132116;27;20046;-73
2022/12/09 01:53:58;;;;;;;15.02;8.07;;;;;;;;;;5110072;27;20050;-73
2022/12/09 01:56:32;;;;;;;20.23;8.32;;;;;;;;;;5111161;27;20031;-72
2022/12/09 01:59:02;;;;;;;18.83;8.60;;;;;;;;;;5129709;27;20046;-72
2022/12/09 02:01:28;;;;;;;25.42;9.90;;;;;;;;;;5126084;27;20038;-73
2022/12/09 02:03:54;;;;;;;24.33;10.88;;;;;;;;;;5129334;27;20096;-72
2022/12/09 02:06:20;;;;;;;14.27;9.25;;;;;;;;;;5128371;27;20430;-72
2022/12/09 02:08:48;;;;;;;15.73;10.30;;;;;;;;;;5107279;27;20036;-71
2022/12/09 02:11:35;;;;;;;14.45;9.30;;;;;;;;;;5126414;27;20089;-71
2022/12/09 02:14:09;;;;;;;14.35;9.80;;;;;;;;;;5090038;27;20047;-71
2022/12/09 02:16:39;;;;;;;16.88;10.57;;;;;;;;;;5126661;27;20112;-71
2022/12/09 02:19:13;;;;;;;16.20;9.93;;;;;;;;;;5096121;27;20058;-72
2022/12/09 02:21:50;;;;;;;21.77;11.68;;;;;;;;;;5107123;27;20039;-72
2022/12/09 02:24:23;;;;;;;16.73;9.88;;;;;;;;;;5110040;27;20054;-71
2022/12/09 02:27:08;;;;;;;19.85;10.95;;;;;;;;;;5127666;27;20077;-71
2022/12/09 02:29:34;;;;;;;17.08;11.18;;;;;;;;;;5124532;27;20039;-71
2022/12/09 02:32:19;;;;;;;16.15;9.80;;;;;;;;;;5129986;27;20039;-71
2022/12/09 02:34:49;;;;;;;15.63;9.88;;;;;;;;;;5126110;27;20516;-72
2022/12/09 02:37:15;;;;;;;20.10;11.07;;;;;;;;;;5120990;27;20039;-72
2022/12/09 02:39:50;;;;;;;23.50;12.32;;;;;;;;;;5128875;27;20131;-71
2022/12/09 02:42:18;;;;;;;17.95;11.27;;;;;;;;;;5126881;27;20056;-72
2022/12/09 02:44:46;;;;;;;16.92;10.32;;;;;;;;;;5126984;27;20039;-72
2022/12/09 02:47:14;;;;;;;19.15;11.55;;;;;;;;;;5128241;27;20042;-72
2022/12/09 02:49:40;;;;;;;15.93;9.93;;;;;;;;;;5110404;27;20047;-73
2022/12/09 02:52:06;;;;;;;23.08;11.40;;;;;;;;;;5120660;27;20097;-73
2022/12/09 02:54:33;;;;;;;17.30;10.80;;;;;;;;;;5107809;27;20038;-72
2022/12/09 02:57:01;;;;;;;20.55;11.55;;;;;;;;;;5111466;27;20209;-72
2022/12/09 02:59:27;;;;;;;17.60;10.75;;;;;;;;;;5123193;27;20038;-72
2022/12/09 03:02:02;;;;;;;20.25;11.07;;;;;;;;;;5122589;27;20430;-72
2022/12/09 03:04:29;;;;;;;15.98;10.55;;;;;;;;;;5124193;27;20397;-72
2022/12/09 03:06:58;;;;;;;16.10;9.07;;;;;;;;;;5125539;27;20083;-72
2022/12/09 03:09:33;;;;;;;19.98;12.35;;;;;;;;;;5108253;27;20506;-72
2022/12/09 03:12:01;;;;;;;19.20;11.07;;;;;;;;;;5126442;27;20307;-72
2022/12/09 03:14:37;;;;;;;19.02;10.43;;;;;;;;;;5085963;27;20039;-72
2022/12/09 03:17:11;;;;;;;19.08;10.30;;;;;;;;;;5125932;27;20508;-72
2022/12/09 03:19:42;;;;;;;20.17;12.30;;;;;;;;;;5120825;27;20038;-73
2022/12/09 03:22:13;;;;;;;16.60;10.98;;;;;;;;;;5111278;27;20039;-72
2022/12/09 03:24:51;;;;;;;15.57;9.68;;;;;;;;;;5127714;27;20575;-72
2022/12/09 03:27:30;;;;;;;19.05;10.80;;;;;;;;;;5117552;27;20058;-72
2022/12/09 03:29:57;;;;;;;18.58;10.32;;;;;;;;;;5119739;27;20043;-72
2022/12/09 03:32:25;;;;;;;16.92;10.57;;;;;;;;;;5123510;27;20047;-72
2022/12/09 03:34:56;;;;;;;18.98;11.02;;;;;;;;;;5123234;27;20043;-72
2022/12/09 03:37:23;;;;;;;16.85;9.57;;;;;;;;;;5117805;27;20142;-72
2022/12/09 03:39:51;;;;;;;17.02;10.07;;;;;;;;;;5106452;27;20043;-72
2022/12/09 03:42:20;;;;;;;19.35;10.93;;;;;;;;;;5122615;27;20519;-73
2022/12/09 03:44:56;;;;;;;17.77;10.00;;;;;;;;;;5106301;28;20575;-72
2022/12/09 03:47:22;;;;;;;15.10;9.60;;;;;;;;;;5101905;27;20088;-72
2022/12/09 03:49:49;;;;;;;18.85;9.23;;;;;;;;;;5120748;27;20046;-72
2022/12/09 03:52:19;;;;;;;15.43;8.20;;;;;;;;;;5115291;27;20067;-72
2022/12/09 03:54:46;;;;;;;15.50;8.27;;;;;;;;;;5109587;27;20118;-72
2022/12/09 03:57:17;;;;;;;17.45;10.43;;;;;;;;;;5111019;27;20266;-72
2022/12/09 03:59:45;;;;;;;14.13;9.50;;;;;;;;;;5127016;27;20031;-72
2022/12/09 04:02:11;;;;;;;21.40;10.82;;;;;;;;;;5110046;27;20088;-72
2022/12/09 04:04:39;;;;;;;17.35;10.93;;;;;;;;;;5128842;27;20035;-72
2022/12/09 04:07:05;;;;;;;15.02;9.45;;;;;;;;;;5125764;27;20091;-72
2022/12/09 04:09:31;;;;;;;18.15;9.45;;;;;;;;;;5126490;27;20034;-72
2022/12/09 04:11:57;;;;;;;19.45;11.05;;;;;;;;;;5128519;27;20041;-72
2022/12/09 04:14:23;;;;;;;15.05;9.20;;;;;;;;;;5113848;27;20501;-72
2022/12/09 04:16:49;;;;;;;15.30;9.70;;;;;;;;;;5108468;27;20055;-72
2022/12/09 04:19:16;;;;;;;17.73;10.82;;;;;;;;;;5109962;27;20047;-72
2022/12/09 04:21:42;;;;;;;18.98;9.40;;;;;;;;;;5122128;27;20038;-72
2022/12/09 04:24:08;;;;;;;19.58;10.63;;;;;;;;;;5126892;27;20038;-72
2022/12/09 04:26:35;;;;;;;15.27;9.30;;;;;;;;;;5128216;27;20031;-72
2022/12/09 04:29:01;;;;;;;13.20;9.52;;;;;;;;;;5128470;27;20050;-72
2022/12/09 04:31:27;;;;;;;18.10;9.07;;;;;;;;;;5124747;27;20031;-72
2022/12/09 04:33:53;;;;;;;17.70;10.20;;;;;;;;;;5123072;27;20047;-72
2022/12/09 04:36:20;;;;;;;17.00;9.75;;;;;;;;;;5119842;27;20047;-72
2022/12/09 04:38:46;;;;;;;15.60;9.02;;;;;;;;;;5105191;28;20074;-72
2022/12/09 04:41:13;;;;;;;17.77;10.00;;;;;;;;;;5109260;28;20055;-72
2022/12/09 04:43:40;;;;;;;15.20;9.05;;;;;;;;;;5127533;28;20039;-72
2022/12/09 04:46:07;;;;;;;15.40;9.88;;;;;;;;;;5109639;28;20039;-72
2022/12/09 04:48:33;;;;;;;17.73;9.27;;;;;;;;;;5104966;28;20592;-72
2022/12/09 04:50:59;;;;;;;12.95;9.07;;;;;;;;;;5116081;28;20042;-72
2022/12/09 04:53:26;;;;;;;18.95;10.10;;;;;;;;;;5126370;28;20448;-72
2022/12/09 04:55:59;;;;;;;14.80;8.38;;;;;;;;;;5127536;27;20066;-72
2022/12/09 04:58:25;;;;;;;18.30;8.68;;;;;;;;;;5110790;27;20059;-73
2022/12/09 05:00:52;;;;;;;22.70;9.85;;;;;;;;;;5127047;27;20110;-73
2022/12/09 05:03:18;;;;;;;15.15;9.40;;;;;;;;;;5121314;27;20032;-74
2022/12/09 05:05:44;;;;;;;19.90;8.35;;;;;;;;;;5124848;27;20118;-73
2022/12/09 05:08:10;;;;;;;16.27;9.00;;;;;;;;;;5114833;27;20091;-73
2022/12/09 05:10:36;;;;;;;13.60;8.25;;;;;;;;;;5131059;27;20221;-73
2022/12/09 05:13:02;;;;;;;14.73;9.07;;;;;;;;;;5127304;27;20110;-73
2022/12/09 05:15:29;;;;;;;15.77;9.57;;;;;;;;;;5128553;27;20079;-72
2022/12/09 05:17:55;;;;;;;14.13;8.07;;;;;;;;;;5132448;27;20043;-73
2022/12/09 05:20:22;;;;;;;15.52;8.85;;;;;;;;;;5096905;27;20518;-72
2022/12/09 05:22:48;;;;;;;16.42;8.93;;;;;;;;;;5131969;27;20043;-73
2022/12/09 05:25:14;;;;;;;15.50;8.95;;;;;;;;;;5110278;27;20373;-72
2022/12/09 05:27:40;;;;;;;13.05;7.32;;;;;;;;;;5111753;27;20129;-72
2022/12/09 05:30:06;;;;;;;14.80;8.63;;;;;;;;;;5128874;27;20476;-72
2022/12/09 05:32:32;;;;;;;16.10;9.07;;;;;;;;;;5114180;27;20062;-73
2022/12/09 05:34:59;;;;;;;17.33;9.45;;;;;;;;;;5113634;27;20039;-73
2022/12/09 05:37:25;;;;;;;17.75;9.18;;;;;;;;;;5130538;27;20039;-73
2022/12/09 05:39:51;;;;;;;12.25;8.55;;;;;;;;;;5129762;27;20026;-73
2022/12/09 05:42:17;;;;;;;15.07;8.88;;;;;;;;;;5125589;27;20046;-72
2022/12/09 05:44:43;;;;;;;16.02;9.38;;;;;;;;;;5121999;27;20039;-73
2022/12/09 05:47:10;;;;;;;15.57;9.05;;;;;;;;;;5124071;27;20532;-72
2022/12/09 05:49:37;;;;;;;14.98;8.68;;;;;;;;;;5125613;27;20035;-73
2022/12/09 05:52:04;;;;;;;17.80;8.80;;;;;;;;;;5127031;27;20039;-72
2022/12/09 05:54:30;;;;;;;12.98;8.15;;;;;;;;;;5129104;27;20036;-73
2022/12/09 05:56:58;;;;;;;16.05;9.82;;;;;;;;;;5127207;27;20039;-72
2022/12/09 05:59:24;;;;;;;20.08;10.60;;;;;;;;;;5107977;27;20074;-73
2022/12/09 06:01:50;;;;;;;13.57;7.85;;;;;;;;;;5130844;27;20031;-73
2022/12/09 06:04:16;;;;;;;19.40;10.02;;;;;;;;;;5110484;27;20096;-73
2022/12/09 06:06:42;;;;;;;22.80;10.30;;;;;;;;;;5123059;27;20042;-70
2022/12/09 06:09:10;;;;;;;16.40;10.63;;;;;;;;;;5130033;27;20542;-73
2022/12/09 06:11:37;;;;;;;12.98;8.15;;;;;;;;;;5112844;27;20038;-72
2022/12/09 06:14:03;;;;;;;16.77;9.82;;;;;;;;;;5125598;27;20127;-72
2022/12/09 06:16:29;;;;;;;20.20;10.10;;;;;;;;;;5122828;27;20067;-72
2022/12/09 06:18:55;;;;;;;19.38;9.50;;;;;;;;;;5120681;27;20035;-72
2022/12/09 06:21:22;;;;;;;15.38;10.38;;;;;;;;;;5102239;27;20131;-73
2022/12/09 06:23:48;;;;;;;19.77;10.18;;;;;;;;;;5123857;27;20042;-72
2022/12/09 06:26:33;;;;;;;19.90;11.13;;;;;;;;;;5125118;27;20039;-72
2022/12/09 06:28:59;;;;;;;18.08;10.95;;;;;;;;;;5127731;27;20043;-73
2022/12/09 06:31:25;;;;;;;19.48;11.65;;;;;;;;;;5125324;27;20043;-73
2022/12/09 06:33:52;;;;;;;20.33;11.63;;;;;;;;;;5112000;27;20043;-72
2022/12/09 06:36:18;;;;;;;22.80;12.27;;;;;;;;;;5128436;27;20043;-73
2022/12/09 06:38:44;;;;;;;23.15;13.00;;;;;;;;;;5128034;27;20542;-73
2022/12/09 06:41:13;;;;;;;20.85;12.27;;;;;;;;;;5089930;27;20058;-73
2022/12/09 06:43:40;;;;;;;25.52;13.40;;;;;;;;;;5123203;27;20091;-73
2022/12/09 06:46:12;;;;;;;21.95;14.32;;;;;;;;;;5124785;27;20050;-73
2022/12/09 06:48:39;;;;;;;23.35;13.60;;;;;;;;;;5129117;27;20070;-73
2022/12/09 06:51:05;;;;;;;25.60;14.65;;;;;;;;;;5130774;27;20035;-73
2022/12/09 06:53:31;;;;;;;27.75;16.40;;;;;;;;;;5124133;27;20061;-73
2022/12/09 06:56:01;;;;;;;27.23;14.23;;;;;;;;;;5110148;27;20036;-73
2022/12/09 06:58:27;;;;;;;32.95;15.98;;;;;;;;;;5129963;27;20036;-73
2022/12/09 07:00:53;;;;;;;24.50;13.50;;;;;;;;;;5125666;27;20130;-73
2022/12/09 07:03:19;;;;;;;22.77;13.90;;;;;;;;;;5112243;27;20050;-73
2022/12/09 07:05:45;;;;;;;29.38;17.08;;;;;;;;;;5120132;27;20047;-73
2022/12/09 07:08:11;;;;;;;27.75;16.50;;;;;;;;;;5110353;27;20042;-74
2022/12/09 07:10:38;;;;;;;28.08;15.90;;;;;;;;;;5113843;27;20046;-73
2022/12/09 07:13:04;;;;;;;30.92;17.17;;;;;;;;;;5124709;27;20100;-73
2022/12/09 07:15:31;;;;;;;29.55;15.55;;;;;;;;;;5127760;27;20100;-72
2022/12/09 07:17:57;;;;;;;32.35;17.45;;;;;;;;;;5102955;27;20044;-73
2022/12/09 07:20:23;;;;;;;36.70;18.92;;;;;;;;;;5096249;27;20477;-73
2022/12/09 07:22:49;;;;;;;30.75;16.55;;;;;;;;;;5127410;27;20353;-73
2022/12/09 07:25:15;;;;;;;30.70;16.98;;;;;;;;;;5107675;28;20115;-74
2022/12/09 07:27:41;;;;;;;30.80;16.58;;;;;;;;;;5121430;27;20046;-73
2022/12/09 07:30:07;;;;;;;34.15;17.70;;;;;;;;;;5126725;27;20100;-73
2022/12/09 07:32:34;;;;;;;33.95;18.83;;;;;;;;;;5130121;27;20118;-74
2022/12/09 07:35:00;;;;;;;26.45;17.02;;;;;;;;;;5127062;27;20452;-73
2022/12/09 07:37:26;;;;;;;28.42;17.95;;;;;;;;;;5126067;27;20100;-73
2022/12/09 07:39:52;;;;;;;31.23;17.42;;;;;;;;;;5114256;27;20541;-74
2022/12/09 07:42:18;;;;;;;29.27;18.65;;;;;;;;;;5127963;27;20054;-72
2022/12/09 07:44:44;;;;;;;33.38;19.48;;;;;;;;;;5089809;27;20171;-72
2022/12/09 07:47:10;;;;;;;39.90;23.30;;;;;;;;;;5090999;27;20087;-74
2022/12/09 07:49:37;;;;;;;40.42;21.90;;;;;;;;;;5123938;27;20041;-72
2022/12/09 07:52:03;;;;;;;44.40;24.52;;;;;;;;;;5121620;27;20039;-73
2022/12/09 07:54:29;;;;;;;38.17;23.27;;;;;;;;;;5090813;27;20067;-73
2022/12/09 07:56:55;;;;;;;43.42;23.98;;;;;;;;;;5105996;28;20107;-72
2022/12/09 07:59:21;;;;;;;34.65;20.70;;;;;;;;;;5105623;27;20039;-72
2022/12/09 08:01:48;;;;;;;38.20;21.50;;;;;;;;;;5119968;27;20038;-72
2022/12/09 08:04:14;;;;;;;43.10;24.55;;;;;;;;;;5120153;27;20039;-72
2022/12/09 08:06:40;;;;;;;43.30;23.67;;;;;;;;;;5119472;27;20042;-71
2022/12/09 08:09:07;;;;;;;49.65;26.10;;;;;;;;;;5119074;27;20039;-72
2022/12/09 08:11:34;;;;;;;90.70;30.17;;;;;;;;;;5106311;27;20039;-72
2022/12/09 08:14:01;;;;;;;158.63;37.80;;;;;;;;;;5117904;27;20023;-73
2022/12/09 08:16:27;;;;;;;185.68;38.40;;;;;;;;;;5106446;28;20036;-73
2022/12/09 08:18:54;;;;;;;145.00;38.58;;;;;;;;;;5115188;27;20050;-72
2022/12/09 08:21:22;;;;;;;185.32;39.28;;;;;;;;;;5124302;27;20038;-72
2022/12/09 08:23:48;;;;;;;251.68;39.88;;;;;;;;;;5115853;27;20083;-72
2022/12/09 08:26:15;;;;;;;233.75;41.92;;;;;;;;;;5125573;27;20046;-72
2022/12/09 08:28:42;;;;;;;227.30;40.88;;;;;;;;;;5119360;27;20039;-72
2022/12/09 08:31:09;;;;;;;139.13;33.17;;;;;;;;;;5118563;27;20540;-74
2022/12/09 08:33:35;;;;;;;47.30;24.58;;;;;;;;;;5118490;27;20047;-73
2022/12/09 08:36:02;;;;;;;60.50;25.55;;;;;;;;;;5105603;28;20040;-74
2022/12/09 08:38:30;;;;;;;79.68;30.02;;;;;;;;;;5119808;27;20485;-73
2022/12/09 08:40:57;;;;;;;80.78;28.20;;;;;;;;;;5124017;28;20066;-73
2022/12/09 08:43:23;;;;;;;204.95;38.65;;;;;;;;;;5125745;28;20119;-73
2022/12/09 08:45:49;;;;;;;136.05;31.70;;;;;;;;;;5117045;28;20468;-73
2022/12/09 08:48:15;;;;;;;165.65;37.95;;;;;;;;;;5109777;28;20051;-74
2022/12/09 08:50:41;;;;;;;108.07;31.40;;;;;;;;;;5125017;28;20485;-73
2022/12/09 08:53:07;;;;;;;153.77;35.22;;;;;;;;;;5107017;28;20043;-74
2022/12/09 08:55:37;;;;;;;140.18;32.83;;;;;;;;;;5125486;28;20035;-73
2022/12/09 08:58:04;;;;;;;62.33;24.67;;;;;;;;;;5126095;28;20048;-73
2022/12/09 09:00:30;;;;;;;112.47;34.17;;;;;;;;;;5119457;28;20042;-74
2022/12/09 09:02:56;;;;;;;190.80;37.60;;;;;;;;;;5105859;28;20370;-73
2022/12/09 09:05:23;;;;;;;153.90;33.28;;;;;;;;;;5100659;28;20031;-73
2022/12/09 09:07:49;;;;;;;157.30;33.40;;;;;;;;;;5102312;28;20050;-73
2022/12/09 09:10:15;;;;;;;124.78;29.13;;;;;;;;;;5119785;28;20039;-74
2022/12/09 09:12:41;;;;;;;142.98;33.17;;;;;;;;;;5108113;28;20047;-74
2022/12/09 09:15:07;;;;;;;90.60;27.17;;;;;;;;;;5122805;28;20454;-73
2022/12/09 09:17:34;;;;;;;75.57;26.45;;;;;;;;;;5099273;28;20088;-73
2022/12/09 09:20:00;;;;;;;78.13;27.83;;;;;;;;;;5114623;28;20032;-74
2022/12/09 09:22:26;;;;;;;86.95;27.30;;;;;;;;;;5118675;28;20114;-71
2022/12/09 09:24:53;;;;;;;91.60;28.73;;;;;;;;;;5125790;28;20415;-71
2022/12/09 09:27:19;;;;;;;81.78;29.38;;;;;;;;;;5118618;28;20035;-73
2022/12/09 09:29:45;;;;;;;79.72;26.40;;;;;;;;;;5098763;28;20044;-73
2022/12/09 09:32:12;;;;;;;90.15;27.67;;;;;;;;;;5110273;28;20396;-74
2022/12/09 09:34:38;;;;;;;58.15;23.63;;;;;;;;;;5122506;28;20031;-73
2022/12/09 09:37:04;;;;;;;48.85;24.00;;;;;;;;;;5124180;28;20046;-74
2022/12/09 09:39:30;;;;;;;60.95;27.52;;;;;;;;;;5127980;28;20062;-74
2022/12/09 09:41:58;;;;;;;86.95;27.55;;;;;;;;;;5126411;27;20043;-73
2022/12/09 09:44:43;;;;;;;135.68;30.58;;;;;;;;;;5125205;27;20031;-74
2022/12/09 09:47:16;;;;;;;67.80;24.70;;;;;;;;;;5126393;27;20621;-74
2022/12/09 09:50:00;;;;;;;65.47;26.75;;;;;;;;;;5113667;27;20039;-73
2022/12/09 09:52:27;;;;;;;77.90;28.55;;;;;;;;;;5107499;27;20404;-74
2022/12/09 09:54:54;;;;;;;57.53;24.40;;;;;;;;;;5122770;27;20092;-74
2022/12/09 09:57:20;;;;;;;67.40;29.58;;;;;;;;;;5112808;27;20051;-74
2022/12/09 10:00:09;;;;;;;63.15;28.27;;;;;;;;;;5121732;27;20534;-74
2022/12/09 10:02:59;;;;;;;50.58;25.40;;;;;;;;;;5109539;27;20055;-74
2022/12/09 10:05:36;;;;;;;59.35;25.50;;;;;;;;;;5114720;27;20047;-74
2022/12/09 10:08:15;;;;;;;90.00;28.20;;;;;;;;;;5125849;27;20047;-74
2022/12/09 10:10:46;;;;;;;93.80;28.13;;;;;;;;;;5102707;28;20107;-74
2022/12/09 10:13:24;;;;;;;62.17;25.70;;;;;;;;;;5127975;27;20039;-74
2022/12/09 10:15:50;;;;;;;89.55;27.33;;;;;;;;;;5110088;27;20039;-74
2022/12/09 10:18:18;;;;;;;107.22;30.00;;;;;;;;;;5123519;27;20035;-73
2022/12/09 10:20:45;;;;;;;74.05;27.23;;;;;;;;;;5113787;27;20065;-74
2022/12/09 10:23:15;;;;;;;47.10;25.13;;;;;;;;;;5122862;27;20032;-74
2022/12/09 10:25:47;;;;;;;42.15;24.27;;;;;;;;;;5120635;27;20047;-74
2022/12/09 10:28:17;;;;;;;70.40;27.70;;;;;;;;;;5125175;27;20102;-74
2022/12/09 10:30:44;;;;;;;81.45;27.52;;;;;;;;;;5128493;27;20264;-74
2022/12/09 10:33:11;;;;;;;47.53;23.67;;;;;;;;;;5089626;28;20490;-74
2022/12/09 10:35:38;;;;;;;55.80;25.00;;;;;;;;;;5110381;27;20277;-74
2022/12/09 10:38:08;;;;;;;59.97;24.27;;;;;;;;;;5121271;27;20054;-74
2022/12/09 10:40:40;;;;;;;67.97;28.42;;;;;;;;;;5090850;28;20071;-74
2022/12/09 10:43:33;;;;;;;57.92;24.73;;;;;;;;;;5115208;27;20499;-74
2022/12/09 10:45:59;;;;;;;;;;;;;;;;;;5123637;27;20091;-74
2022/12/09 10:48:29;;;;;;;42.10;22.73;;;;;;;;;;5105855;27;20397;-71
2022/12/09 10:50:59;;;;;;;75.10;24.77;;;;;;;;;;5131241;27;20062;-75
2022/12/09 10:53:25;;;;;;;48.63;22.15;;;;;;;;;;5109757;27;20035;-75
2022/12/09 10:55:53;;;;;;;66.15;24.67;;;;;;;;;;5123406;27;20046;-74
2022/12/09 10:58:21;;;;;;;61.95;25.48;;;;;;;;;;5121827;27;20035;-74
2022/12/09 11:01:02;;;;;;;42.03;20.45;;;;;;;;;;5126193;27;20049;-75
2022/12/09 11:03:33;;;;;;;42.75;22.33;;;;;;;;;;5109516;27;20039;-75
2022/12/09 11:06:04;;;;;;;57.47;23.02;;;;;;;;;;5123216;27;20122;-75
2022/12/09 11:08:31;;;;;;;50.47;21.35;;;;;;;;;;5122003;27;20039;-75
2022/12/09 11:10:57;;;;;;;60.13;21.83;;;;;;;;;;5125568;27;20044;-75
2022/12/09 11:13:28;;;;;;;38.05;22.20;;;;;;;;;;5126741;27;20535;-75
2022/12/09 11:15:58;;;;;;;39.60;22.00;;;;;;;;;;5118229;27;20043;-74
2022/12/09 11:18:44;;;;;;;66.05;26.70;;;;;;;;;;5110353;27;20039;-74
2022/12/09 11:21:46;;;;;;;62.25;26.30;;;;;;;;;;5126325;27;20035;-74
2022/12/09 11:24:23;;;;;;;51.63;23.98;;;;;;;;;;5043656;28;20040;-74
2022/12/09 11:26:49;;;;;;;56.83;23.30;;;;;;;;;;5115225;27;20512;-74
2022/12/09 11:29:17;;;;;;;61.13;25.42;;;;;;;;;;5127691;27;20400;-75
2022/12/09 11:31:44;;;;;;;65.20;24.23;;;;;;;;;;5123716;27;20039;-74
2022/12/09 11:34:16;;;;;;;64.20;25.33;;;;;;;;;;5109814;27;20046;-74
2022/12/09 11:36:47;;;;;;;60.95;22.42;;;;;;;;;;5112105;27;20050;-74
2022/12/09 11:39:13;;;;;;;58.17;23.50;;;;;;;;;;5110787;27;20035;-73
2022/12/09 11:44:31;;;;;;;64.68;25.63;;;;;;;;;;5120180;27;20100;-74
2022/12/09 11:47:02;;;;;;;55.50;21.98;;;;;;;;;;5118096;27;20035;-74
2022/12/09 11:49:29;;;;;;;52.78;23.90;;;;;;;;;;5128535;27;20031;-74
2022/12/09 11:52:04;;;;;;;49.30;23.20;;;;;;;;;;5125136;27;20199;-74
2022/12/09 11:54:42;;;;;;;54.38;22.92;;;;;;;;;;5124294;27;20114;-74
2022/12/09 11:57:15;;;;;;;75.10;27.48;;;;;;;;;;5121586;27;20512;-73
2022/12/09 11:59:48;;;;;;;39.67;21.10;;;;;;;;;;5123063;27;20540;-74
2022/12/09 12:02:20;;;;;;;46.47;23.60;;;;;;;;;;5122719;27;20063;-74
2022/12/09 12:04:55;;;;;;;58.87;26.13;;;;;;;;;;5115126;27;20581;-74
2022/12/09 12:07:29;;;;;;;64.32;23.48;;;;;;;;;;5122606;27;20289;-74
2022/12/09 12:09:56;;;;;;;45.03;21.58;;;;;;;;;;5111457;27;20216;-72
2022/12/09 12:12:34;;;;;;;48.47;23.88;;;;;;;;;;5123230;27;20031;-75
2022/12/09 12:15:08;;;;;;;55.65;24.23;;;;;;;;;;5125893;27;20037;-75
2022/12/09 12:17:41;;;;;;;48.50;20.45;;;;;;;;;;5103214;27;20450;-75
2022/12/09 12:20:10;;;;;;;74.20;24.23;;;;;;;;;;5124549;27;20119;-74
2022/12/09 12:22:44;;;;;;;54.10;21.88;;;;;;;;;;5115114;27;20042;-75
2022/12/09 12:25:19;;;;;;;52.25;23.08;;;;;;;;;;5124227;27;20434;-75
2022/12/09 12:27:51;;;;;;;45.00;20.35;;;;;;;;;;5106632;27;20047;-75
2022/12/09 12:30:22;;;;;;;61.72;23.35;;;;;;;;;;5106794;27;20130;-74
2022/12/09 12:32:48;;;;;;;48.58;23.30;;;;;;;;;;5121478;27;20043;-75
2022/12/09 12:35:21;;;;;;;53.13;23.27;;;;;;;;;;5112209;27;20027;-74
2022/12/09 12:38:10;;;;;;;132.50;29.77;;;;;;;;;;5119392;27;20032;-74
2022/12/09 12:40:58;;;;;;;40.60;21.52;;;;;;;;;;5090633;28;20097;-75
2022/12/09 12:46:35;;;;;;;112.28;26.85;;;;;;;;;;5102459;28;20519;-72
2022/12/09 12:49:20;;;;;;;158.77;30.92;;;;;;;;;;5106348;28;20066;-75
2022/12/09 12:51:46;;;;;;;54.58;22.75;;;;;;;;;;5122651;28;20036;-75
2022/12/09 12:54:28;;;;;;;112.35;28.85;;;;;;;;;;5117301;28;20385;-73
2022/12/09 12:57:00;;;;;;;42.08;22.45;;;;;;;;;;5107998;28;20065;-74
2022/12/09 12:59:32;;;;;;;53.22;25.13;;;;;;;;;;5122113;28;20445;-74
2022/12/09 13:02:10;;;;;;;72.22;27.27;;;;;;;;;;5106521;28;20047;-73
2022/12/09 13:04:44;;;;;;;121.63;29.20;;;;;;;;;;5119728;28;20044;-74
2022/12/09 13:07:27;;;;;;;91.05;30.08;;;;;;;;;;5121461;28;20451;-73
2022/12/09 13:10:01;;;;;;;67.20;24.45;;;;;;;;;;5107633;28;20492;-74
2022/12/09 13:15:15;;;;;;;145.27;33.13;;;;;;;;;;5118031;28;20373;-73
2022/12/09 13:17:43;;;;;;;127.43;31.00;;;;;;;;;;5115350;27;20054;-73
2022/12/09 13:20:35;;;;;;;107.43;26.75;;;;;;;;;;5122879;27;20035;-73
2022/12/09 13:23:06;;;;;;;46.28;21.73;;;;;;;;;;5093144;27;20132;-73
2022/12/09 13:25:43;;;;;;;72.13;28.20;;;;;;;;;;5102063;27;20047;-73
2022/12/09 13:28:09;;;;;;;72.68;28.75;;;;;;;;;;5125696;27;20049;-73
2022/12/09 13:30:39;;;;;;;57.47;26.73;;;;;;;;;;5105229;27;20337;-74
2022/12/09 13:33:11;;;;;;;43.70;22.90;;;;;;;;;;5116469;27;20099;-73
2022/12/09 13:35:45;;;;;;;53.05;24.83;;;;;;;;;;5119920;27;20054;-72
2022/12/09 13:38:32;;;;;;;38.63;22.90;;;;;;;;;;5120251;27;20051;-74
2022/12/09 13:40:59;;;;;;;48.33;23.75;;;;;;;;;;5108329;27;20051;-73
2022/12/09 13:43:26;;;;;;;58.75;27.63;;;;;;;;;;5108173;27;20335;-73
2022/12/09 13:45:54;;;;;;;50.55;25.65;;;;;;;;;;5118272;27;20039;-73
2022/12/09 13:48:20;;;;;;;63.20;26.38;;;;;;;;;;5126456;27;20063;-73
2022/12/09 13:50:56;;;;;;;69.35;25.45;;;;;;;;;;5125475;27;20043;-74
2022/12/09 13:53:43;;;;;;;71.28;25.00;;;;;;;;;;5099167;27;20749;-74
2022/12/09 13:56:15;;;;;;;56.90;24.70;;;;;;;;;;5115141;27;20410;-73
2022/12/09 13:58:59;;;;;;;101.47;30.60;;;;;;;;;;5119593;27;20043;-73
2022/12/09 14:01:29;;;;;;;55.53;27.50;;;;;;;;;;5119169;27;20039;-73
2022/12/09 14:04:01;;;;;;;47.33;25.00;;;;;;;;;;5122861;27;20121;-70
2022/12/09 14:06:45;;;;;;;88.80;29.98;;;;;;;;;;5102140;27;20520;-73
2022/12/09 14:09:18;;;;;;;48.72;26.80;;;;;;;;;;5116951;27;20036;-73
2022/12/09 14:11:49;;;;;;;49.75;28.98;;;;;;;;;;5103389;27;20102;-73
2022/12/09 14:14:24;;;;;;;50.42;29.52;;;;;;;;;;5122135;27;20035;-73
2022/12/09 14:16:54;;;;;;;56.88;32.35;;;;;;;;;;5120119;27;20118;-74
2022/12/09 14:19:23;;;;;;;56.30;31.67;;;;;;;;;;5122210;27;20038;-73
2022/12/09 14:22:15;;;;;;;61.20;30.80;;;;;;;;;;5120803;27;20507;-73
2022/12/09 14:24:42;;;;;;;50.40;32.80;;;;;;;;;;5097069;27;20329;-73
2022/12/09 14:27:13;;;;;;;58.85;32.15;;;;;;;;;;5121248;27;20047;-73
2022/12/09 14:29:41;;;;;;;54.25;32.42;;;;;;;;;;5119262;27;20047;-73
2022/12/09 14:32:28;;;;;;;58.60;30.38;;;;;;;;;;5119129;27;20095;-72
2022/12/09 14:35:17;;;;;;;57.00;29.05;;;;;;;;;;5120897;27;20043;-73
2022/12/09 14:37:43;;;;;;;52.15;29.33;;;;;;;;;;5110107;27;20090;-72
2022/12/09 14:40:28;;;;;;;58.42;34.58;;;;;;;;;;5102178;27;20043;-72